PWSweather.com
Personal Weather Stations
Station Observations
KCOGRAND2
Redlands, Southcamp Road & Dakota Circle, Grand Junction, CO 81507

Redlands, Southcamp Road & Dakota CircleGrand Junction, CO 81507

Lat: 39.055, Lon: -108.637

Elevation: 4870

Station Type: RadioShack WX200

High Low Average
Temperature 95.9°F35.5°C 70.5°F21.4°C 81.7°F27.6°C
Dew Point 46.9°F8.3°C 21.6°F-5.8°C 34.0°F1.1°C
Winds 16.0 mph 25.7 kmh Calm Calm 5.0 mph S8.0 kmh S
Wind Gusts 26.6 mph42.8 kmh -- 9.0 mph14.5 kmh
Humidity 42% 11% 23%
Pressure 25.19 in853.0 mb 24.98 in845.9 mb -
Precipitation 0.00 in0.0 mm - -
Hour Temp Dew Point Humidity Winds Wind Gusts Pressure Precip Precip Rate Daily Precip Total
12:01 AM 76.8°F24.9°C -5537.2°C - 9.0 mph 14.5 kmh 13.0 mph20.9 kmh 25.10 in850.0 mb 0.00 in0.0 mm 0.00 in0.0 mm 0.00 in0.0 mm
12:06 AM 77.0°F25.0°C -5537.2°C - 8.0 mph N12.9 kmh N 11.0 mph17.7 kmh 25.10 in850.0 mb 0.00 in0.0 mm 0.00 in0.0 mm 0.00 in0.0 mm
12:11 AM 76.8°F24.9°C -5537.2°C - 8.0 mph N12.9 kmh N 11.0 mph17.7 kmh 25.10 in850.0 mb 0.00 in0.0 mm 0.00 in0.0 mm 0.00 in0.0 mm
12:16 AM 76.6°F24.8°C -5537.2°C - 7.0 mph N11.3 kmh N 9.6 mph15.4 kmh 25.10 in850.0 mb 0.00 in0.0 mm 0.00 in0.0 mm 0.00 in0.0 mm
12:21 AM 76.8°F24.9°C -5537.2°C - 6.0 mph N9.7 kmh N 8.7 mph14.0 kmh 25.10 in850.0 mb 0.00 in0.0 mm 0.00 in0.0 mm 0.00 in0.0 mm
12:26 AM 76.8°F24.9°C -5537.2°C - 5.0 mph N8.0 kmh N 7.8 mph12.6 kmh 25.10 in850.0 mb 0.00 in0.0 mm 0.00 in0.0 mm 0.00 in0.0 mm
12:31 AM 76.8°F24.9°C -5537.2°C - 6.0 mph N9.7 kmh N 7.8 mph12.6 kmh 25.10 in850.0 mb 0.00 in0.0 mm 0.00 in0.0 mm 0.00 in0.0 mm
12:36 AM 76.8°F24.9°C -5537.2°C - 6.0 mph N9.7 kmh N 7.8 mph12.6 kmh 25.10 in850.0 mb 0.00 in0.0 mm 0.00 in0.0 mm 0.00 in0.0 mm
12:41 AM 76.6°F24.8°C -5537.2°C - 6.0 mph N9.7 kmh N 11.6 mph18.7 kmh 25.10 in850.0 mb 0.00 in0.0 mm 0.00 in0.0 mm 0.00 in0.0 mm
12:46 AM 76.5°F24.7°C 21.9°F-5.6°C 13% 7.0 mph 11.3 kmh 11.2 mph18.0 kmh 25.10 in850.0 mb 0.00 in0.0 mm 0.00 in0.0 mm 0.00 in0.0 mm
12:51 AM 76.1°F24.5°C 21.7°F-5.7°C 13% 8.0 mph N12.9 kmh N 11.2 mph18.0 kmh 25.10 in850.0 mb 0.00 in0.0 mm 0.00 in0.0 mm 0.00 in0.0 mm
12:56 AM 76.1°F24.5°C 21.7°F-5.7°C 13% 7.0 mph N11.3 kmh N 10.1 mph16.3 kmh 25.10 in850.0 mb 0.00 in0.0 mm 0.00 in0.0 mm 0.00 in0.0 mm
01:01 AM 75.9°F24.4°C 21.6°F-5.8°C 13% 6.0 mph N9.7 kmh N 10.5 mph16.9 kmh 25.10 in850.0 mb 0.00 in0.0 mm 0.00 in0.0 mm 0.00 in0.0 mm
01:06 AM 75.6°F24.2°C 24.6°F-4.1°C 15% 5.0 mph NNE8.0 kmh NNE 8.3 mph13.4 kmh 25.10 in850.0 mb 0.00 in0.0 mm 0.00 in0.0 mm 0.00 in0.0 mm
01:11 AM 75.2°F24.0°C 24.4°F-4.2°C 15% 4.0 mph NNE6.4 kmh NNE 8.3 mph13.4 kmh 25.10 in850.0 mb 0.00 in0.0 mm 0.00 in0.0 mm 0.00 in0.0 mm
01:16 AM 75.2°F24.0°C 24.4°F-4.2°C 15% 4.0 mph NNE6.4 kmh NNE 6.7 mph10.8 kmh 25.10 in850.0 mb 0.00 in0.0 mm 0.00 in0.0 mm 0.00 in0.0 mm
01:21 AM 74.8°F23.8°C 28.4°F-2.0°C 18% 4.0 mph NNE6.4 kmh NNE 5.8 mph9.3 kmh 25.10 in850.0 mb 0.00 in0.0 mm 0.00 in0.0 mm 0.00 in0.0 mm
01:26 AM 75.2°F24.0°C 28.8°F-1.8°C 18% 4.0 mph N6.4 kmh N 6.7 mph10.8 kmh 25.10 in850.0 mb 0.00 in0.0 mm 0.00 in0.0 mm 0.00 in0.0 mm
01:31 AM 75.6°F24.2°C 29.1°F-1.6°C 18% 4.0 mph N6.4 kmh N 7.4 mph11.9 kmh 25.10 in850.0 mb 0.00 in0.0 mm 0.00 in0.0 mm 0.00 in0.0 mm
01:36 AM 75.4°F24.1°C 28.9°F-1.7°C 18% 5.0 mph NNW8.0 kmh NNW 9.2 mph14.8 kmh 25.10 in850.0 mb 0.00 in0.0 mm 0.00 in0.0 mm 0.00 in0.0 mm
01:41 AM 75.4°F24.1°C 28.9°F-1.7°C 18% 6.0 mph N9.7 kmh N 9.2 mph14.8 kmh 25.10 in850.0 mb 0.00 in0.0 mm 0.00 in0.0 mm 0.00 in0.0 mm
01:46 AM 75.2°F24.0°C 28.8°F-1.8°C 18% 5.0 mph N8.0 kmh N 10.1 mph16.3 kmh 25.10 in850.0 mb 0.00 in0.0 mm 0.00 in0.0 mm 0.00 in0.0 mm
01:51 AM 74.8°F23.8°C 31.1°F-0.5°C 20% 4.0 mph N6.4 kmh N 4.9 mph7.9 kmh 25.10 in850.0 mb 0.00 in0.0 mm 0.00 in0.0 mm 0.00 in0.0 mm
01:56 AM 74.8°F23.8°C 31.1°F-0.5°C 20% 3.0 mph N4.8 kmh N 6.7 mph10.8 kmh 25.10 in850.0 mb 0.00 in0.0 mm 0.00 in0.0 mm 0.00 in0.0 mm
02:01 AM 74.5°F23.6°C 32.0°F0.0°C 21% 3.0 mph NNE4.8 kmh NNE 4.0 mph6.4 kmh 25.10 in850.0 mb 0.00 in0.0 mm 0.00 in0.0 mm 0.00 in0.0 mm
02:06 AM 74.5°F23.6°C 32.0°F0.0°C 21% 2.0 mph NNE3.2 kmh NNE 3.6 mph5.8 kmh 25.10 in850.0 mb 0.00 in0.0 mm 0.00 in0.0 mm 0.00 in0.0 mm
02:11 AM 74.1°F23.4°C 31.6°F-0.2°C 21% Calm Calm 3.6 mph5.8 kmh 25.10 in850.0 mb 0.00 in0.0 mm 0.00 in0.0 mm 0.00 in0.0 mm
02:16 AM 73.8°F23.2°C 31.5°F-0.3°C 21% Calm Calm 3.6 mph5.8 kmh 25.10 in850.0 mb 0.00 in0.0 mm 0.00 in0.0 mm 0.00 in0.0 mm
02:21 AM 73.0°F22.8°C 32.0°F0.0°C 22% 2.0 mph NNE3.2 kmh NNE 6.3 mph10.1 kmh 25.10 in850.0 mb 0.00 in0.0 mm 0.00 in0.0 mm 0.00 in0.0 mm
02:26 AM 72.3°F22.4°C 32.4°F0.2°C 23% 4.0 mph SE6.4 kmh SE 6.7 mph10.8 kmh 25.10 in850.0 mb 0.00 in0.0 mm 0.00 in0.0 mm 0.00 in0.0 mm
02:31 AM 72.9°F22.7°C 32.9°F0.5°C 23% 4.0 mph SSW6.4 kmh SSW 5.4 mph8.7 kmh 25.10 in850.0 mb 0.00 in0.0 mm 0.00 in0.0 mm 0.00 in0.0 mm
02:36 AM 73.4°F23.0°C 33.3°F0.7°C 23% 3.0 mph WSW4.8 kmh WSW 6.9 mph11.1 kmh 25.10 in850.0 mb 0.00 in0.0 mm 0.00 in0.0 mm 0.00 in0.0 mm
02:41 AM 72.9°F22.7°C 32.9°F0.5°C 23% 2.0 mph N3.2 kmh N 5.4 mph8.7 kmh 25.10 in850.0 mb 0.00 in0.0 mm 0.00 in0.0 mm 0.00 in0.0 mm
02:46 AM 73.2°F22.9°C 33.3°F0.7°C 23% 3.0 mph N4.8 kmh N 5.8 mph9.3 kmh 25.10 in850.0 mb 0.00 in0.0 mm 0.00 in0.0 mm 0.00 in0.0 mm
02:51 AM 73.0°F22.8°C 33.1°F0.6°C 23% 3.0 mph N4.8 kmh N 4.5 mph7.2 kmh 25.10 in850.0 mb 0.00 in0.0 mm 0.00 in0.0 mm 0.00 in0.0 mm
02:56 AM 72.5°F22.5°C 33.6°F0.9°C 24% 1.0 mph N1.6 kmh N 3.1 mph5.0 kmh 25.10 in850.0 mb 0.00 in0.0 mm 0.00 in0.0 mm 0.00 in0.0 mm
03:01 AM 72.3°F22.4°C 34.5°F1.4°C 25% 2.0 mph NNE3.2 kmh NNE 5.4 mph8.7 kmh 25.10 in850.0 mb 0.00 in0.0 mm 0.00 in0.0 mm 0.00 in0.0 mm
03:06 AM 72.1°F22.3°C 35.4°F1.9°C 26% 3.0 mph NE4.8 kmh NE 4.9 mph7.9 kmh 25.10 in850.0 mb 0.00 in0.0 mm 0.00 in0.0 mm 0.00 in0.0 mm
03:11 AM 71.8°F22.1°C 35.1°F1.7°C 26% 2.0 mph E3.2 kmh E 4.0 mph6.4 kmh 25.10 in850.0 mb 0.00 in0.0 mm 0.00 in0.0 mm 0.00 in0.0 mm
03:16 AM 72.9°F22.7°C 34.0°F1.1°C 24% 3.0 mph NE4.8 kmh NE 6.7 mph10.8 kmh 25.10 in850.0 mb 0.00 in0.0 mm 0.00 in0.0 mm 0.00 in0.0 mm
03:21 AM 74.7°F23.7°C 33.3°F0.7°C 22% 5.0 mph NNE8.0 kmh NNE 11.0 mph17.7 kmh 25.10 in850.0 mb 0.00 in0.0 mm 0.00 in0.0 mm 0.00 in0.0 mm
03:26 AM 74.5°F23.6°C 32.0°F0.0°C 21% 4.0 mph N6.4 kmh N 4.5 mph7.2 kmh 25.10 in850.0 mb 0.00 in0.0 mm 0.00 in0.0 mm 0.00 in0.0 mm
03:31 AM 74.3°F23.5°C 31.8°F-0.1°C 21% 1.0 mph NNE1.6 kmh NNE 4.5 mph7.2 kmh 25.10 in850.0 mb 0.00 in0.0 mm 0.00 in0.0 mm 0.00 in0.0 mm
03:36 AM 74.1°F23.4°C 32.9°F0.5°C 22% 2.0 mph NNE3.2 kmh NNE 4.0 mph6.4 kmh 25.10 in850.0 mb 0.00 in0.0 mm 0.00 in0.0 mm 0.00 in0.0 mm
03:41 AM 73.2°F22.9°C 32.0°F0.0°C 22% 1.0 mph NNE1.6 kmh NNE 3.6 mph5.8 kmh 25.10 in850.0 mb 0.00 in0.0 mm 0.00 in0.0 mm 0.00 in0.0 mm
03:46 AM 72.9°F22.7°C 32.9°F0.5°C 23% 2.0 mph NNE3.2 kmh NNE 5.4 mph8.7 kmh 25.10 in850.0 mb 0.00 in0.0 mm 0.00 in0.0 mm 0.00 in0.0 mm
03:51 AM 72.7°F22.6°C 32.7°F0.4°C 23% 3.0 mph NE4.8 kmh NE 5.4 mph8.7 kmh 25.10 in850.0 mb 0.00 in0.0 mm 0.00 in0.0 mm 0.00 in0.0 mm
03:56 AM 73.0°F22.8°C 32.0°F0.0°C 22% 3.0 mph NE4.8 kmh NE 5.4 mph8.7 kmh 25.10 in850.0 mb 0.00 in0.0 mm 0.00 in0.0 mm 0.00 in0.0 mm
04:01 AM 72.9°F22.7°C 32.9°F0.5°C 23% 4.0 mph NNE6.4 kmh NNE 6.7 mph10.8 kmh 25.10 in850.0 mb 0.00 in0.0 mm 0.00 in0.0 mm 0.00 in0.0 mm
04:06 AM 73.4°F23.0°C 32.2°F0.1°C 22% 4.0 mph NE6.4 kmh NE 6.3 mph10.1 kmh 25.10 in850.0 mb 0.00 in0.0 mm 0.00 in0.0 mm 0.00 in0.0 mm
04:11 AM 73.6°F23.1°C 32.4°F0.2°C 22% 4.0 mph NE6.4 kmh NE 6.9 mph11.1 kmh 25.10 in850.0 mb 0.00 in0.0 mm 0.00 in0.0 mm 0.00 in0.0 mm
04:16 AM 74.3°F23.5°C 32.9°F0.5°C 22% 6.0 mph NNE9.7 kmh NNE 9.6 mph15.4 kmh 25.10 in850.0 mb 0.00 in0.0 mm 0.00 in0.0 mm 0.00 in0.0 mm
04:21 AM 74.7°F23.7°C 32.2°F0.1°C 21% 7.0 mph NNE11.3 kmh NNE 11.0 mph17.7 kmh 25.10 in850.0 mb 0.00 in0.0 mm 0.00 in0.0 mm 0.00 in0.0 mm
04:26 AM 74.7°F23.7°C 32.2°F0.1°C 21% 8.0 mph NNE12.9 kmh NNE 12.1 mph19.5 kmh 25.10 in850.0 mb 0.00 in0.0 mm 0.00 in0.0 mm 0.00 in0.0 mm
04:31 AM 74.7°F23.7°C 32.2°F0.1°C 21% 8.0 mph N12.9 kmh N 10.1 mph16.3 kmh 25.10 in850.0 mb 0.00 in0.0 mm 0.00 in0.0 mm 0.00 in0.0 mm
04:36 AM 74.7°F23.7°C 32.2°F0.1°C 21% 6.0 mph N9.7 kmh N 8.7 mph14.0 kmh 25.10 in850.0 mb 0.00 in0.0 mm 0.00 in0.0 mm 0.00 in0.0 mm
04:41 AM 74.3°F23.5°C 32.9°F0.5°C 22% 4.0 mph N6.4 kmh N 5.8 mph9.3 kmh 25.10 in850.0 mb 0.00 in0.0 mm 0.00 in0.0 mm 0.00 in0.0 mm
04:46 AM 74.5°F23.6°C 32.0°F0.0°C 21% 4.0 mph NE6.4 kmh NE 8.7 mph14.0 kmh 25.10 in850.0 mb 0.00 in0.0 mm 0.00 in0.0 mm 0.00 in0.0 mm
04:51 AM 75.2°F24.0°C 32.5°F0.3°C 21% 7.0 mph N11.3 kmh N 13.9 mph22.4 kmh 25.10 in850.0 mb 0.00 in0.0 mm 0.00 in0.0 mm 0.00 in0.0 mm
04:56 AM 74.8°F23.8°C 32.4°F0.2°C 21% 8.0 mph N12.9 kmh N 9.6 mph15.4 kmh 25.10 in850.0 mb 0.00 in0.0 mm 0.00 in0.0 mm 0.00 in0.0 mm
05:01 AM 74.7°F23.7°C 32.2°F0.1°C 21% 7.0 mph N11.3 kmh N 13.9 mph22.4 kmh 25.10 in850.0 mb 0.00 in0.0 mm 0.00 in0.0 mm 0.00 in0.0 mm
05:06 AM 74.5°F23.6°C 32.0°F0.0°C 21% 9.0 mph N14.5 kmh N 13.9 mph22.4 kmh 25.10 in850.0 mb 0.00 in0.0 mm 0.00 in0.0 mm 0.00 in0.0 mm
05:11 AM 74.5°F23.6°C 32.0°F0.0°C 21% 9.0 mph N14.5 kmh N 13.4 mph21.6 kmh 25.10 in850.0 mb 0.00 in0.0 mm 0.00 in0.0 mm 0.00 in0.0 mm
05:16 AM 73.9°F23.3°C 31.5°F-0.3°C 21% 7.0 mph N11.3 kmh N 7.8 mph12.6 kmh 25.10 in850.0 mb 0.00 in0.0 mm 0.00 in0.0 mm 0.00 in0.0 mm
05:21 AM 73.8°F23.2°C 31.5°F-0.3°C 21% 5.0 mph NNE8.0 kmh NNE 8.7 mph14.0 kmh 25.10 in850.0 mb 0.00 in0.0 mm 0.00 in0.0 mm 0.00 in0.0 mm
05:26 AM 73.6°F23.1°C 32.4°F0.2°C 22% 6.0 mph NNE9.7 kmh NNE 10.5 mph16.9 kmh 25.10 in850.0 mb 0.00 in0.0 mm 0.00 in0.0 mm 0.00 in0.0 mm
05:31 AM 73.2°F22.9°C 32.0°F0.0°C 22% 8.0 mph N12.9 kmh N 13.4 mph21.6 kmh 25.10 in850.0 mb 0.00 in0.0 mm 0.00 in0.0 mm 0.00 in0.0 mm
05:36 AM 72.7°F22.6°C 32.7°F0.4°C 23% 7.0 mph N11.3 kmh N 10.5 mph16.9 kmh 25.10 in850.0 mb 0.00 in0.0 mm 0.00 in0.0 mm 0.00 in0.0 mm
05:41 AM 72.1°F22.3°C 33.3°F0.7°C 24% 6.0 mph N9.7 kmh N 9.6 mph15.4 kmh 25.10 in850.0 mb 0.00 in0.0 mm 0.00 in0.0 mm 0.00 in0.0 mm
05:46 AM 72.1°F22.3°C 33.3°F0.7°C 24% 6.0 mph N9.7 kmh N 10.1 mph16.3 kmh 25.10 in850.0 mb 0.00 in0.0 mm 0.00 in0.0 mm 0.00 in0.0 mm
05:51 AM 72.0°F22.2°C 34.2°F1.2°C 25% 7.0 mph N11.3 kmh N 10.1 mph16.3 kmh 25.10 in850.0 mb 0.00 in0.0 mm 0.00 in0.0 mm 0.00 in0.0 mm
05:56 AM 72.1°F22.3°C 34.3°F1.3°C 25% 6.0 mph NNW9.7 kmh NNW 7.8 mph12.6 kmh 25.10 in850.0 mb 0.00 in0.0 mm 0.00 in0.0 mm 0.00 in0.0 mm
06:01 AM 72.3°F22.4°C 33.4°F0.8°C 24% 5.0 mph NNW8.0 kmh NNW 6.7 mph10.8 kmh 25.10 in850.0 mb 0.00 in0.0 mm 0.00 in0.0 mm 0.00 in0.0 mm
06:06 AM 72.3°F22.4°C 34.5°F1.4°C 25% 4.0 mph NNW6.4 kmh NNW 6.3 mph10.1 kmh 25.10 in850.0 mb 0.00 in0.0 mm 0.00 in0.0 mm 0.00 in0.0 mm
06:11 AM 72.1°F22.3°C 34.3°F1.3°C 25% 3.0 mph NW4.8 kmh NW 5.4 mph8.7 kmh 25.10 in850.0 mb 0.00 in0.0 mm 0.00 in0.0 mm 0.00 in0.0 mm
06:16 AM 72.0°F22.2°C 34.2°F1.2°C 25% 2.0 mph NNW3.2 kmh NNW 6.3 mph10.1 kmh 25.10 in850.0 mb 0.00 in0.0 mm 0.00 in0.0 mm 0.00 in0.0 mm
06:21 AM 72.0°F22.2°C 35.2°F1.8°C 26% 2.0 mph N3.2 kmh N 4.5 mph7.2 kmh 25.10 in850.0 mb 0.00 in0.0 mm 0.00 in0.0 mm 0.00 in0.0 mm
06:26 AM 71.6°F22.0°C 34.9°F1.6°C 26% 1.0 mph N1.6 kmh N 4.0 mph6.4 kmh 25.10 in850.0 mb 0.00 in0.0 mm 0.00 in0.0 mm 0.00 in0.0 mm
06:31 AM 71.4°F21.9°C 35.6°F2.0°C 27% 1.0 mph N1.6 kmh N 3.6 mph5.8 kmh 25.10 in850.0 mb 0.00 in0.0 mm 0.00 in0.0 mm 0.00 in0.0 mm
06:36 AM 70.9°F21.6°C 38.7°F3.7°C 31% 2.0 mph N3.2 kmh N 4.9 mph7.9 kmh 25.10 in850.0 mb 0.00 in0.0 mm 0.00 in0.0 mm 0.00 in0.0 mm
06:41 AM 70.5°F21.4°C 39.2°F4.0°C 32% 2.0 mph N3.2 kmh N 4.0 mph6.4 kmh 25.10 in850.0 mb 0.00 in0.0 mm 0.00 in0.0 mm 0.00 in0.0 mm
06:46 AM 70.7°F21.5°C 39.4°F4.1°C 32% 1.0 mph NNE1.6 kmh NNE 6.3 mph10.1 kmh 25.10 in850.0 mb 0.00 in0.0 mm 0.00 in0.0 mm 0.00 in0.0 mm
06:51 AM 70.5°F21.4°C 40.1°F4.5°C 33% 2.0 mph ENE3.2 kmh ENE 6.3 mph10.1 kmh 25.13 in851.0 mb 0.00 in0.0 mm 0.00 in0.0 mm 0.00 in0.0 mm
06:56 AM 70.5°F21.4°C 40.1°F4.5°C 33% 2.0 mph E3.2 kmh E 3.6 mph5.8 kmh 25.13 in851.0 mb 0.00 in0.0 mm 0.00 in0.0 mm 0.00 in0.0 mm
07:01 AM 70.5°F21.4°C 40.1°F4.5°C 33% 1.0 mph E1.6 kmh E 4.5 mph7.2 kmh 25.13 in851.0 mb 0.00 in0.0 mm 0.00 in0.0 mm 0.00 in0.0 mm
07:06 AM 70.5°F21.4°C 40.1°F4.5°C 33% 1.0 mph E1.6 kmh E 4.5 mph7.2 kmh 25.13 in851.0 mb 0.00 in0.0 mm 0.00 in0.0 mm 0.00 in0.0 mm
07:11 AM 70.5°F21.4°C 40.1°F4.5°C 33% Calm Calm -- 25.13 in851.0 mb 0.00 in0.0 mm 0.00 in0.0 mm 0.00 in0.0 mm
07:16 AM 70.7°F21.5°C 39.4°F4.1°C 32% Calm Calm -- 25.13 in851.0 mb 0.00 in0.0 mm 0.00 in0.0 mm 0.00 in0.0 mm
07:21 AM 71.4°F21.9°C 39.2°F4.0°C 31% 1.0 mph E1.6 kmh E 4.9 mph7.9 kmh 25.13 in851.0 mb 0.00 in0.0 mm 0.00 in0.0 mm 0.00 in0.0 mm
07:26 AM 71.6°F22.0°C 39.4°F4.1°C 31% 4.0 mph NE6.4 kmh NE 6.3 mph10.1 kmh 25.13 in851.0 mb 0.00 in0.0 mm 0.00 in0.0 mm 0.00 in0.0 mm
07:31 AM 72.0°F22.2°C 37.9°F3.3°C 29% 3.0 mph NNE4.8 kmh NNE 5.4 mph8.7 kmh 25.13 in851.0 mb 0.00 in0.0 mm 0.00 in0.0 mm 0.00 in0.0 mm
07:36 AM 72.0°F22.2°C 40.5°F4.7°C 32% 3.0 mph NE4.8 kmh NE 6.7 mph10.8 kmh 25.13 in851.0 mb 0.00 in0.0 mm 0.00 in0.0 mm 0.00 in0.0 mm
07:41 AM 72.1°F22.3°C 39.7°F4.3°C 31% 4.0 mph SE6.4 kmh SE 5.4 mph8.7 kmh 25.13 in851.0 mb 0.00 in0.0 mm 0.00 in0.0 mm 0.00 in0.0 mm
07:46 AM 73.2°F22.9°C 38.1°F3.4°C 28% 2.0 mph SSE3.2 kmh SSE 4.5 mph7.2 kmh 25.13 in851.0 mb 0.00 in0.0 mm 0.00 in0.0 mm 0.00 in0.0 mm
07:51 AM 73.9°F23.3°C 34.9°F1.6°C 24% 2.0 mph SW3.2 kmh SW 4.9 mph7.9 kmh 25.13 in851.0 mb 0.00 in0.0 mm 0.00 in0.0 mm 0.00 in0.0 mm
07:56 AM 74.1°F23.4°C 35.1°F1.7°C 24% 4.0 mph W6.4 kmh W 7.4 mph11.9 kmh 25.13 in851.0 mb 0.00 in0.0 mm 0.00 in0.0 mm 0.00 in0.0 mm
08:01 AM 73.9°F23.3°C 34.9°F1.6°C 24% 5.0 mph W8.0 kmh W 6.9 mph11.1 kmh 25.13 in851.0 mb 0.00 in0.0 mm 0.00 in0.0 mm 0.00 in0.0 mm
08:06 AM 74.1°F23.4°C 35.1°F1.7°C 24% 5.0 mph W8.0 kmh W 10.5 mph16.9 kmh 25.13 in851.0 mb 0.00 in0.0 mm 0.00 in0.0 mm 0.00 in0.0 mm
08:11 AM 74.1°F23.4°C 36.0°F2.2°C 25% 5.0 mph W8.0 kmh W 8.7 mph14.0 kmh 25.13 in851.0 mb 0.00 in0.0 mm 0.00 in0.0 mm 0.00 in0.0 mm
08:16 AM 74.5°F23.6°C 35.2°F1.8°C 24% 3.0 mph NW4.8 kmh NW 5.8 mph9.3 kmh 25.13 in851.0 mb 0.00 in0.0 mm 0.00 in0.0 mm 0.00 in0.0 mm
08:21 AM 75.0°F23.9°C 34.7°F1.5°C 23% 3.0 mph NNE4.8 kmh NNE 6.3 mph10.1 kmh 25.13 in851.0 mb 0.00 in0.0 mm 0.00 in0.0 mm 0.00 in0.0 mm
08:26 AM 75.2°F24.0°C 34.9°F1.6°C 23% 2.0 mph NNE3.2 kmh NNE 4.9 mph7.9 kmh 25.13 in851.0 mb 0.00 in0.0 mm 0.00 in0.0 mm 0.00 in0.0 mm
08:31 AM 75.6°F24.2°C 36.1°F2.3°C 24% 1.0 mph N1.6 kmh N 4.0 mph6.4 kmh 25.13 in851.0 mb 0.00 in0.0 mm 0.00 in0.0 mm 0.00 in0.0 mm
08:36 AM 75.6°F24.2°C 35.1°F1.7°C 23% 2.0 mph N3.2 kmh N 4.5 mph7.2 kmh 25.16 in852.0 mb 0.00 in0.0 mm 0.00 in0.0 mm 0.00 in0.0 mm
08:41 AM 76.5°F24.7°C 36.0°F2.2°C 23% 3.0 mph N4.8 kmh N 6.3 mph10.1 kmh 25.16 in852.0 mb 0.00 in0.0 mm 0.00 in0.0 mm 0.00 in0.0 mm
08:46 AM 76.5°F24.7°C 34.7°F1.5°C 22% 5.0 mph N8.0 kmh N 8.3 mph13.4 kmh 25.16 in852.0 mb 0.00 in0.0 mm 0.00 in0.0 mm 0.00 in0.0 mm
08:51 AM 75.6°F24.2°C 36.1°F2.3°C 24% 5.0 mph NNE8.0 kmh NNE 7.8 mph12.6 kmh 25.16 in852.0 mb 0.00 in0.0 mm 0.00 in0.0 mm 0.00 in0.0 mm
08:56 AM 75.0°F23.9°C 37.8°F3.2°C 26% 4.0 mph NNE6.4 kmh NNE 4.9 mph7.9 kmh 25.16 in852.0 mb 0.00 in0.0 mm 0.00 in0.0 mm 0.00 in0.0 mm
09:01 AM 75.0°F23.9°C 37.8°F3.2°C 26% 3.0 mph NE4.8 kmh NE 6.7 mph10.8 kmh 25.16 in852.0 mb 0.00 in0.0 mm 0.00 in0.0 mm 0.00 in0.0 mm
09:07 AM 73.9°F23.3°C 41.4°F5.2°C 31% 3.0 mph NE4.8 kmh NE 6.7 mph10.8 kmh 25.16 in852.0 mb 0.00 in0.0 mm 0.00 in0.0 mm 0.00 in0.0 mm
09:12 AM -5537.2°C -5537.2°C - 5.0 mph N8.0 kmh N 11.0 mph17.7 kmh 25.16 in852.0 mb 0.00 in0.0 mm 0.00 in0.0 mm 0.00 in0.0 mm
09:17 AM 72.9°F22.7°C 42.1°F5.6°C 33% 8.0 mph NNW12.9 kmh NNW 15.4 mph24.8 kmh 25.16 in852.0 mb 0.00 in0.0 mm 0.00 in0.0 mm 0.00 in0.0 mm
09:22 AM 72.3°F22.4°C 43.9°F6.6°C 36% 7.0 mph NNE11.3 kmh NNE 9.2 mph14.8 kmh 25.16 in852.0 mb 0.00 in0.0 mm 0.00 in0.0 mm 0.00 in0.0 mm
09:27 AM 72.0°F22.2°C 45.0°F7.2°C 38% 6.0 mph NE9.7 kmh NE 10.5 mph16.9 kmh 25.16 in852.0 mb 0.00 in0.0 mm 0.00 in0.0 mm 0.00 in0.0 mm
09:32 AM 71.2°F21.8°C 46.9°F8.3°C 42% 6.0 mph NNE9.7 kmh NNE 8.7 mph14.0 kmh 25.16 in852.0 mb 0.00 in0.0 mm 0.00 in0.0 mm 0.00 in0.0 mm
09:37 AM 72.0°F22.2°C 46.9°F8.3°C 41% 6.0 mph NE9.7 kmh NE 8.3 mph13.4 kmh 25.19 in853.0 mb 0.00 in0.0 mm 0.00 in0.0 mm 0.00 in0.0 mm
09:42 AM 72.7°F22.6°C 45.0°F7.2°C 37% 4.0 mph NE6.4 kmh NE 5.4 mph8.7 kmh 25.19 in853.0 mb 0.00 in0.0 mm 0.00 in0.0 mm 0.00 in0.0 mm
09:47 AM 73.6°F23.1°C 45.0°F7.2°C 36% 3.0 mph ENE4.8 kmh ENE 4.9 mph7.9 kmh 25.19 in853.0 mb 0.00 in0.0 mm 0.00 in0.0 mm 0.00 in0.0 mm
09:52 AM 74.3°F23.5°C 45.7°F7.6°C 36% 4.0 mph NE6.4 kmh NE 6.9 mph11.1 kmh 25.19 in853.0 mb 0.00 in0.0 mm 0.00 in0.0 mm 0.00 in0.0 mm
09:57 AM 75.6°F24.2°C 43.7°F6.5°C 32% 4.0 mph NNE6.4 kmh NNE 6.7 mph10.8 kmh 25.19 in853.0 mb 0.00 in0.0 mm 0.00 in0.0 mm 0.00 in0.0 mm
10:02 AM 77.0°F25.0°C 44.1°F6.7°C 31% 4.0 mph NE6.4 kmh NE 8.3 mph13.4 kmh 25.19 in853.0 mb 0.00 in0.0 mm 0.00 in0.0 mm 0.00 in0.0 mm
10:07 AM -5537.2°C -5537.2°C - 5.0 mph NNE8.0 kmh NNE 9.2 mph14.8 kmh 25.19 in853.0 mb 0.00 in0.0 mm 0.00 in0.0 mm 0.00 in0.0 mm
10:12 AM -5537.2°C -5537.2°C - 5.0 mph NW8.0 kmh NW 7.8 mph12.6 kmh 25.19 in853.0 mb 0.00 in0.0 mm 0.00 in0.0 mm 0.00 in0.0 mm
10:17 AM -5537.2°C -5537.2°C - 4.0 mph NW6.4 kmh NW 6.7 mph10.8 kmh 25.19 in853.0 mb 0.00 in0.0 mm 0.00 in0.0 mm 0.00 in0.0 mm
10:22 AM 76.1°F24.5°C 41.5°F5.3°C 29% 4.0 mph N6.4 kmh N 6.7 mph10.8 kmh 25.16 in852.0 mb 0.00 in0.0 mm 0.00 in0.0 mm 0.00 in0.0 mm
10:27 AM 76.1°F24.5°C 40.6°F4.8°C 28% 3.0 mph N4.8 kmh N 5.4 mph8.7 kmh 25.16 in852.0 mb 0.00 in0.0 mm 0.00 in0.0 mm 0.00 in0.0 mm
10:32 AM 76.6°F24.8°C 39.2°F4.0°C 26% 3.0 mph NNW4.8 kmh NNW 5.8 mph9.3 kmh 25.16 in852.0 mb 0.00 in0.0 mm 0.00 in0.0 mm 0.00 in0.0 mm
10:37 AM 77.5°F25.3°C 40.8°F4.9°C 27% 3.0 mph NW4.8 kmh NW 6.3 mph10.1 kmh 25.16 in852.0 mb 0.00 in0.0 mm 0.00 in0.0 mm 0.00 in0.0 mm
10:42 AM 77.9°F25.5°C 38.1°F3.4°C 24% 4.0 mph WNW6.4 kmh WNW 6.7 mph10.8 kmh 25.16 in852.0 mb 0.00 in0.0 mm 0.00 in0.0 mm 0.00 in0.0 mm
10:47 AM 79.0°F26.1°C 36.9°F2.7°C 22% 5.0 mph W8.0 kmh W 6.9 mph11.1 kmh 25.16 in852.0 mb 0.00 in0.0 mm 0.00 in0.0 mm 0.00 in0.0 mm
10:52 AM 79.2°F26.2°C 35.8°F2.1°C 21% 4.0 mph WSW6.4 kmh WSW 7.8 mph12.6 kmh 25.16 in852.0 mb 0.00 in0.0 mm 0.00 in0.0 mm 0.00 in0.0 mm
10:57 AM 80.1°F26.7°C 37.8°F3.2°C 22% 3.0 mph SW4.8 kmh SW 5.8 mph9.3 kmh 25.16 in852.0 mb 0.00 in0.0 mm 0.00 in0.0 mm 0.00 in0.0 mm
11:02 AM 81.3°F27.4°C 38.8°F3.8°C 22% 4.0 mph SW6.4 kmh SW 8.3 mph13.4 kmh 25.16 in852.0 mb 0.00 in0.0 mm 0.00 in0.0 mm 0.00 in0.0 mm
11:07 AM 81.7°F27.6°C 36.7°F2.6°C 20% 4.0 mph WNW6.4 kmh WNW 7.4 mph11.9 kmh 25.19 in853.0 mb 0.00 in0.0 mm 0.00 in0.0 mm 0.00 in0.0 mm
11:12 AM 82.0°F27.8°C 35.6°F2.0°C 19% 5.0 mph NW8.0 kmh NW 9.2 mph14.8 kmh 25.19 in853.0 mb 0.00 in0.0 mm 0.00 in0.0 mm 0.00 in0.0 mm
11:17 AM 82.0°F27.8°C 35.6°F2.0°C 19% 4.0 mph NNW6.4 kmh NNW 7.4 mph11.9 kmh 25.19 in853.0 mb 0.00 in0.0 mm 0.00 in0.0 mm 0.00 in0.0 mm
11:22 AM 81.3°F27.4°C 27.5°F-2.5°C 14% 3.0 mph N4.8 kmh N 6.7 mph10.8 kmh 25.16 in852.0 mb 0.00 in0.0 mm 0.00 in0.0 mm 0.00 in0.0 mm
11:27 AM 82.6°F28.1°C 28.6°F-1.9°C 14% 4.0 mph N6.4 kmh N 6.9 mph11.1 kmh 25.16 in852.0 mb 0.00 in0.0 mm 0.00 in0.0 mm 0.00 in0.0 mm
11:32 AM 83.5°F28.6°C 27.5°F-2.5°C 13% 5.0 mph NW8.0 kmh NW 6.9 mph11.1 kmh 25.16 in852.0 mb 0.00 in0.0 mm 0.00 in0.0 mm 0.00 in0.0 mm
11:37 AM 82.9°F28.3°C 28.8°F-1.8°C 14% 5.0 mph NNW8.0 kmh NNW 6.9 mph11.1 kmh 25.16 in852.0 mb 0.00 in0.0 mm 0.00 in0.0 mm 0.00 in0.0 mm
11:42 AM 83.3°F28.5°C 23.4°F-4.8°C 11% 5.0 mph N8.0 kmh N 8.7 mph14.0 kmh 25.16 in852.0 mb 0.00 in0.0 mm 0.00 in0.0 mm 0.00 in0.0 mm
11:47 AM 84.7°F29.3°C 28.4°F-2.0°C 13% 6.0 mph N9.7 kmh N 10.5 mph16.9 kmh 25.16 in852.0 mb 0.00 in0.0 mm 0.00 in0.0 mm 0.00 in0.0 mm
11:52 AM 84.2°F29.0°C 24.1°F-4.4°C 11% 7.0 mph N11.3 kmh N 10.5 mph16.9 kmh 25.16 in852.0 mb 0.00 in0.0 mm 0.00 in0.0 mm 0.00 in0.0 mm
11:57 AM 84.6°F29.2°C 24.3°F-4.3°C 11% 8.0 mph N12.9 kmh N 12.1 mph19.5 kmh 25.16 in852.0 mb 0.00 in0.0 mm 0.00 in0.0 mm 0.00 in0.0 mm
12:02 PM 85.3°F29.6°C 24.8°F-4.0°C 11% 7.0 mph N11.3 kmh N 10.5 mph16.9 kmh 25.16 in852.0 mb 0.00 in0.0 mm 0.00 in0.0 mm 0.00 in0.0 mm
12:07 PM 86.0°F30.0°C 25.3°F-3.7°C 11% 6.0 mph N9.7 kmh N 9.6 mph15.4 kmh 25.16 in852.0 mb 0.00 in0.0 mm 0.00 in0.0 mm 0.00 in0.0 mm
12:12 PM 86.5°F30.3°C 25.7°F-3.5°C 11% 7.0 mph N11.3 kmh N 12.1 mph19.5 kmh 25.16 in852.0 mb 0.00 in0.0 mm 0.00 in0.0 mm 0.00 in0.0 mm
12:17 PM 87.1°F30.6°C -5537.2°C - 7.0 mph N11.3 kmh N 10.1 mph16.3 kmh 25.16 in852.0 mb 0.00 in0.0 mm 0.00 in0.0 mm 0.00 in0.0 mm
12:22 PM 87.8°F31.0°C -5537.2°C - 6.0 mph N9.7 kmh N 9.2 mph14.8 kmh 25.13 in851.0 mb 0.00 in0.0 mm 0.00 in0.0 mm 0.00 in0.0 mm
12:27 PM 87.4°F30.8°C -5537.2°C - 6.0 mph N9.7 kmh N 11.0 mph17.7 kmh 25.13 in851.0 mb 0.00 in0.0 mm 0.00 in0.0 mm 0.00 in0.0 mm
12:32 PM 87.3°F30.7°C -5537.2°C - 6.0 mph NNW9.7 kmh NNW 13.0 mph20.9 kmh 25.13 in851.0 mb 0.00 in0.0 mm 0.00 in0.0 mm 0.00 in0.0 mm
12:37 PM 87.3°F30.7°C -5537.2°C - 7.0 mph NNW11.3 kmh NNW 11.0 mph17.7 kmh 25.13 in851.0 mb 0.00 in0.0 mm 0.00 in0.0 mm 0.00 in0.0 mm
12:42 PM 87.4°F30.8°C -5537.2°C - 6.0 mph NW9.7 kmh NW 11.0 mph17.7 kmh 25.13 in851.0 mb 0.00 in0.0 mm 0.00 in0.0 mm 0.00 in0.0 mm
12:47 PM 87.6°F30.9°C -5537.2°C - 6.0 mph NW9.7 kmh NW 12.1 mph19.5 kmh 25.13 in851.0 mb 0.00 in0.0 mm 0.00 in0.0 mm 0.00 in0.0 mm
12:52 PM 88.3°F31.3°C -5537.2°C - 6.0 mph NW9.7 kmh NW 12.1 mph19.5 kmh 25.13 in851.0 mb 0.00 in0.0 mm 0.00 in0.0 mm 0.00 in0.0 mm
12:57 PM 89.4°F31.9°C -5537.2°C - 6.0 mph NNW9.7 kmh NNW 11.6 mph18.7 kmh 25.13 in851.0 mb 0.00 in0.0 mm 0.00 in0.0 mm 0.00 in0.0 mm
01:02 PM 88.5°F31.4°C -5537.2°C - 6.0 mph NNW9.7 kmh NNW 11.2 mph18.0 kmh 25.13 in851.0 mb 0.00 in0.0 mm 0.00 in0.0 mm 0.00 in0.0 mm
01:07 PM 88.5°F31.4°C -5537.2°C - 6.0 mph NW9.7 kmh NW 10.1 mph16.3 kmh 25.13 in851.0 mb 0.00 in0.0 mm 0.00 in0.0 mm 0.00 in0.0 mm
01:12 PM 90.1°F32.3°C -5537.2°C - 6.0 mph NW9.7 kmh NW 9.6 mph15.4 kmh 25.13 in851.0 mb 0.00 in0.0 mm 0.00 in0.0 mm 0.00 in0.0 mm
01:17 PM 89.8°F32.1°C -5537.2°C - 5.0 mph NW8.0 kmh NW 12.5 mph20.1 kmh 25.13 in851.0 mb 0.00 in0.0 mm 0.00 in0.0 mm 0.00 in0.0 mm
01:22 PM 89.1°F31.7°C -5537.2°C - 5.0 mph WNW8.0 kmh WNW 9.6 mph15.4 kmh 25.13 in851.0 mb 0.00 in0.0 mm 0.00 in0.0 mm 0.00 in0.0 mm
01:27 PM 90.1°F32.3°C -5537.2°C - 5.0 mph NW8.0 kmh NW 8.3 mph13.4 kmh 25.13 in851.0 mb 0.00 in0.0 mm 0.00 in0.0 mm 0.00 in0.0 mm
01:32 PM 89.2°F31.8°C -5537.2°C - 5.0 mph NNW8.0 kmh NNW 9.2 mph14.8 kmh 25.13 in851.0 mb 0.00 in0.0 mm 0.00 in0.0 mm 0.00 in0.0 mm
01:37 PM 89.6°F32.0°C -5537.2°C - 5.0 mph WNW8.0 kmh WNW 9.6 mph15.4 kmh 25.13 in851.0 mb 0.00 in0.0 mm 0.00 in0.0 mm 0.00 in0.0 mm
01:42 PM 89.1°F31.7°C -5537.2°C - 5.0 mph W8.0 kmh W 10.1 mph16.3 kmh 25.13 in851.0 mb 0.00 in0.0 mm 0.00 in0.0 mm 0.00 in0.0 mm
01:47 PM 88.5°F31.4°C -5537.2°C - 5.0 mph NW8.0 kmh NW 8.3 mph13.4 kmh 25.13 in851.0 mb 0.00 in0.0 mm 0.00 in0.0 mm 0.00 in0.0 mm
01:52 PM 89.1°F31.7°C -5537.2°C - 4.0 mph NNW6.4 kmh NNW 6.7 mph10.8 kmh 25.10 in850.0 mb 0.00 in0.0 mm 0.00 in0.0 mm 0.00 in0.0 mm
01:57 PM 89.2°F31.8°C -5537.2°C - 3.0 mph NW4.8 kmh NW 7.8 mph12.6 kmh 25.10 in850.0 mb 0.00 in0.0 mm 0.00 in0.0 mm 0.00 in0.0 mm
02:02 PM 90.1°F32.3°C -5537.2°C - 4.0 mph NW6.4 kmh NW 9.6 mph15.4 kmh 25.10 in850.0 mb 0.00 in0.0 mm 0.00 in0.0 mm 0.00 in0.0 mm
02:07 PM 89.8°F32.1°C -5537.2°C - 5.0 mph NNW8.0 kmh NNW 8.3 mph13.4 kmh 25.10 in850.0 mb 0.00 in0.0 mm 0.00 in0.0 mm 0.00 in0.0 mm
02:12 PM 88.9°F31.6°C -5537.2°C - 5.0 mph NW8.0 kmh NW 8.7 mph14.0 kmh 25.10 in850.0 mb 0.00 in0.0 mm 0.00 in0.0 mm 0.00 in0.0 mm
02:17 PM 88.9°F31.6°C -5537.2°C - 6.0 mph NW9.7 kmh NW 9.2 mph14.8 kmh 25.10 in850.0 mb 0.00 in0.0 mm 0.00 in0.0 mm 0.00 in0.0 mm
02:22 PM 90.0°F32.2°C -5537.2°C - 6.0 mph NNW9.7 kmh NNW 10.5 mph16.9 kmh 25.10 in850.0 mb 0.00 in0.0 mm 0.00 in0.0 mm 0.00 in0.0 mm
02:27 PM 90.9°F32.7°C -5537.2°C - 6.0 mph NNW9.7 kmh NNW 8.7 mph14.0 kmh 25.10 in850.0 mb 0.00 in0.0 mm 0.00 in0.0 mm 0.00 in0.0 mm
02:32 PM 93.2°F34.0°C -5537.2°C - 5.0 mph N8.0 kmh N 9.6 mph15.4 kmh 25.10 in850.0 mb 0.00 in0.0 mm 0.00 in0.0 mm 0.00 in0.0 mm
02:37 PM 93.7°F34.3°C -5537.2°C - 6.0 mph NNW9.7 kmh NNW 11.0 mph17.7 kmh 25.10 in850.0 mb 0.00 in0.0 mm 0.00 in0.0 mm 0.00 in0.0 mm
02:42 PM 93.9°F34.4°C -5537.2°C - 6.0 mph NNW9.7 kmh NNW 11.6 mph18.7 kmh 25.10 in850.0 mb 0.00 in0.0 mm 0.00 in0.0 mm 0.00 in0.0 mm
02:47 PM 93.9°F34.4°C -5537.2°C - 6.0 mph NW9.7 kmh NW 9.6 mph15.4 kmh 25.10 in850.0 mb 0.00 in0.0 mm 0.00 in0.0 mm 0.00 in0.0 mm
02:52 PM 92.8°F33.8°C -5537.2°C - 6.0 mph W9.7 kmh W 13.9 mph22.4 kmh 25.10 in850.0 mb 0.00 in0.0 mm 0.00 in0.0 mm 0.00 in0.0 mm
02:57 PM 91.4°F33.0°C -5537.2°C - 8.0 mph W12.9 kmh W 12.1 mph19.5 kmh 25.10 in850.0 mb 0.00 in0.0 mm 0.00 in0.0 mm 0.00 in0.0 mm
03:02 PM 91.2°F32.9°C -5537.2°C - 7.0 mph W11.3 kmh W 11.0 mph17.7 kmh 25.10 in850.0 mb 0.00 in0.0 mm 0.00 in0.0 mm 0.00 in0.0 mm
03:07 PM 91.0°F32.8°C -5537.2°C - 6.0 mph W9.7 kmh W 13.4 mph21.6 kmh 25.10 in850.0 mb 0.00 in0.0 mm 0.00 in0.0 mm 0.00 in0.0 mm
03:12 PM 91.0°F32.8°C -5537.2°C - 8.0 mph WSW12.9 kmh WSW 13.0 mph20.9 kmh 25.10 in850.0 mb 0.00 in0.0 mm 0.00 in0.0 mm 0.00 in0.0 mm
03:17 PM 92.7°F33.7°C -5537.2°C - 8.0 mph W12.9 kmh W 12.5 mph20.1 kmh 25.10 in850.0 mb 0.00 in0.0 mm 0.00 in0.0 mm 0.00 in0.0 mm
03:22 PM 92.5°F33.6°C -5537.2°C - 7.0 mph W11.3 kmh W 10.5 mph16.9 kmh 25.07 in849.0 mb 0.00 in0.0 mm 0.00 in0.0 mm 0.00 in0.0 mm
03:27 PM 92.7°F33.7°C -5537.2°C - 6.0 mph W9.7 kmh W 15.2 mph24.5 kmh 25.07 in849.0 mb 0.00 in0.0 mm 0.00 in0.0 mm 0.00 in0.0 mm
03:32 PM 93.4°F34.1°C -5537.2°C - 7.0 mph WSW11.3 kmh WSW 12.5 mph20.1 kmh 25.07 in849.0 mb 0.00 in0.0 mm 0.00 in0.0 mm 0.00 in0.0 mm
03:37 PM 94.8°F34.9°C -5537.2°C - 5.0 mph WSW8.0 kmh WSW 7.4 mph11.9 kmh 25.07 in849.0 mb 0.00 in0.0 mm 0.00 in0.0 mm 0.00 in0.0 mm
03:47 PM 93.9°F34.4°C -5537.2°C - 5.0 mph N8.0 kmh N 12.5 mph20.1 kmh 25.07 in849.0 mb 0.00 in0.0 mm 0.00 in0.0 mm 0.00 in0.0 mm
03:53 PM 94.5°F34.7°C -5537.2°C - 3.0 mph N4.8 kmh N 6.7 mph10.8 kmh 25.07 in849.0 mb 0.00 in0.0 mm 0.00 in0.0 mm 0.00 in0.0 mm
03:58 PM 95.7°F35.4°C -5537.2°C - 4.0 mph N6.4 kmh N 8.7 mph14.0 kmh 25.07 in849.0 mb 0.00 in0.0 mm 0.00 in0.0 mm 0.00 in0.0 mm
04:03 PM 95.5°F35.3°C -5537.2°C - 4.0 mph N6.4 kmh N 8.7 mph14.0 kmh 25.07 in849.0 mb 0.00 in0.0 mm 0.00 in0.0 mm 0.00 in0.0 mm
04:08 PM 95.7°F35.4°C -5537.2°C - 5.0 mph N8.0 kmh N 10.1 mph16.3 kmh 25.04 in848.0 mb 0.00 in0.0 mm 0.00 in0.0 mm 0.00 in0.0 mm
04:13 PM 95.2°F35.1°C -5537.2°C - 6.0 mph NW9.7 kmh NW 8.7 mph14.0 kmh 25.04 in848.0 mb 0.00 in0.0 mm 0.00 in0.0 mm 0.00 in0.0 mm
04:18 PM 95.9°F35.5°C -5537.2°C - 5.0 mph NW8.0 kmh NW 8.3 mph13.4 kmh 25.04 in848.0 mb 0.00 in0.0 mm 0.00 in0.0 mm 0.00 in0.0 mm
04:23 PM 95.4°F35.2°C -5537.2°C - 6.0 mph WNW9.7 kmh WNW 14.8 mph23.8 kmh 25.04 in848.0 mb 0.00 in0.0 mm 0.00 in0.0 mm 0.00 in0.0 mm
04:28 PM 94.3°F34.6°C -5537.2°C - 7.0 mph W11.3 kmh W 10.1 mph16.3 kmh 25.04 in848.0 mb 0.00 in0.0 mm 0.00 in0.0 mm 0.00 in0.0 mm
04:33 PM 94.1°F34.5°C -5537.2°C - 6.0 mph W9.7 kmh W 11.0 mph17.7 kmh 25.04 in848.0 mb 0.00 in0.0 mm 0.00 in0.0 mm 0.00 in0.0 mm
04:38 PM 94.3°F34.6°C -5537.2°C - 6.0 mph WNW9.7 kmh WNW 11.0 mph17.7 kmh 25.04 in848.0 mb 0.00 in0.0 mm 0.00 in0.0 mm 0.00 in0.0 mm
04:43 PM 93.7°F34.3°C -5537.2°C - 6.0 mph N9.7 kmh N 10.1 mph16.3 kmh 25.04 in848.0 mb 0.00 in0.0 mm 0.00 in0.0 mm 0.00 in0.0 mm
04:48 PM 94.3°F34.6°C -5537.2°C - 5.0 mph N8.0 kmh N 9.2 mph14.8 kmh 25.04 in848.0 mb 0.00 in0.0 mm 0.00 in0.0 mm 0.00 in0.0 mm
04:53 PM 94.5°F34.7°C -5537.2°C - 5.0 mph NNW8.0 kmh NNW 9.2 mph14.8 kmh 25.04 in848.0 mb 0.00 in0.0 mm 0.00 in0.0 mm 0.00 in0.0 mm
04:58 PM 94.5°F34.7°C -5537.2°C - 4.0 mph WNW6.4 kmh WNW 10.1 mph16.3 kmh 25.04 in848.0 mb 0.00 in0.0 mm 0.00 in0.0 mm 0.00 in0.0 mm
05:03 PM 93.4°F34.1°C -5537.2°C - 5.0 mph NW8.0 kmh NW 9.6 mph15.4 kmh 25.04 in848.0 mb 0.00 in0.0 mm 0.00 in0.0 mm 0.00 in0.0 mm
05:08 PM 93.9°F34.4°C -5537.2°C - 5.0 mph NW8.0 kmh NW 8.3 mph13.4 kmh 25.01 in846.9 mb 0.00 in0.0 mm 0.00 in0.0 mm 0.00 in0.0 mm
05:13 PM 93.4°F34.1°C -5537.2°C - 5.0 mph NW8.0 kmh NW 6.9 mph11.1 kmh 25.01 in846.9 mb 0.00 in0.0 mm 0.00 in0.0 mm 0.00 in0.0 mm
05:18 PM 92.7°F33.7°C -5537.2°C - 6.0 mph N9.7 kmh N 14.8 mph23.8 kmh 25.01 in846.9 mb 0.00 in0.0 mm 0.00 in0.0 mm 0.00 in0.0 mm
05:23 PM 93.4°F34.1°C -5537.2°C - 9.0 mph 14.5 kmh 15.2 mph24.5 kmh 25.01 in846.9 mb 0.00 in0.0 mm 0.00 in0.0 mm 0.00 in0.0 mm
05:28 PM 92.7°F33.7°C -5537.2°C - 9.0 mph N14.5 kmh N 13.0 mph20.9 kmh 25.01 in846.9 mb 0.00 in0.0 mm 0.00 in0.0 mm 0.00 in0.0 mm
05:33 PM 92.5°F33.6°C -5537.2°C - 9.0 mph N14.5 kmh N 12.1 mph19.5 kmh 25.01 in846.9 mb 0.00 in0.0 mm 0.00 in0.0 mm 0.00 in0.0 mm
05:38 PM 92.3°F33.5°C -5537.2°C - 8.0 mph N12.9 kmh N 11.0 mph17.7 kmh 25.01 in846.9 mb 0.00 in0.0 mm 0.00 in0.0 mm 0.00 in0.0 mm
05:43 PM 92.3°F33.5°C -5537.2°C - 8.0 mph N12.9 kmh N 11.0 mph17.7 kmh 25.01 in846.9 mb 0.00 in0.0 mm 0.00 in0.0 mm 0.00 in0.0 mm
05:48 PM 92.5°F33.6°C -5537.2°C - 8.0 mph N12.9 kmh N 11.2 mph18.0 kmh 25.01 in846.9 mb 0.00 in0.0 mm 0.00 in0.0 mm 0.00 in0.0 mm
05:53 PM 92.3°F33.5°C -5537.2°C - 7.0 mph N11.3 kmh N 11.6 mph18.7 kmh 25.01 in846.9 mb 0.00 in0.0 mm 0.00 in0.0 mm 0.00 in0.0 mm
05:58 PM 92.1°F33.4°C -5537.2°C - 6.0 mph NNW9.7 kmh NNW 10.1 mph16.3 kmh 25.01 in846.9 mb 0.00 in0.0 mm 0.00 in0.0 mm 0.00 in0.0 mm
06:03 PM 92.3°F33.5°C -5537.2°C - 7.0 mph NNW11.3 kmh NNW 11.6 mph18.7 kmh 25.01 in846.9 mb 0.00 in0.0 mm 0.00 in0.0 mm 0.00 in0.0 mm
06:08 PM 94.5°F34.7°C -5537.2°C - 8.0 mph NW12.9 kmh NW 12.5 mph20.1 kmh 25.01 in846.9 mb 0.00 in0.0 mm 0.00 in0.0 mm 0.00 in0.0 mm
06:13 PM 93.2°F34.0°C -5537.2°C - 8.0 mph NNW12.9 kmh NNW 14.3 mph23.0 kmh 25.01 in846.9 mb 0.00 in0.0 mm 0.00 in0.0 mm 0.00 in0.0 mm
06:18 PM 92.7°F33.7°C -5537.2°C - 8.0 mph N12.9 kmh N 13.4 mph21.6 kmh 25.01 in846.9 mb 0.00 in0.0 mm 0.00 in0.0 mm 0.00 in0.0 mm
06:23 PM 92.3°F33.5°C -5537.2°C - 9.0 mph N14.5 kmh N 12.5 mph20.1 kmh 25.01 in846.9 mb 0.00 in0.0 mm 0.00 in0.0 mm 0.00 in0.0 mm
06:28 PM 92.3°F33.5°C -5537.2°C - 9.0 mph NNW14.5 kmh NNW 18.1 mph29.1 kmh 25.01 in846.9 mb 0.00 in0.0 mm 0.00 in0.0 mm 0.00 in0.0 mm
06:33 PM 92.8°F33.8°C -5537.2°C - 8.0 mph NNW12.9 kmh NNW 13.0 mph20.9 kmh 25.01 in846.9 mb 0.00 in0.0 mm 0.00 in0.0 mm 0.00 in0.0 mm
06:38 PM 92.3°F33.5°C -5537.2°C - 7.0 mph NW11.3 kmh NW 12.1 mph19.5 kmh 25.01 in846.9 mb 0.00 in0.0 mm 0.00 in0.0 mm 0.00 in0.0 mm
06:43 PM 92.3°F33.5°C -5537.2°C - 7.0 mph NW11.3 kmh NW 14.3 mph23.0 kmh 25.01 in846.9 mb 0.00 in0.0 mm 0.00 in0.0 mm 0.00 in0.0 mm
06:48 PM 92.3°F33.5°C -5537.2°C - 8.0 mph NNW12.9 kmh NNW 12.5 mph20.1 kmh 24.98 in845.9 mb 0.00 in0.0 mm 0.00 in0.0 mm 0.00 in0.0 mm
06:53 PM 91.9°F33.3°C -5537.2°C - 8.0 mph NNW12.9 kmh NNW 11.0 mph17.7 kmh 24.98 in845.9 mb 0.00 in0.0 mm 0.00 in0.0 mm 0.00 in0.0 mm
06:58 PM 91.9°F33.3°C -5537.2°C - 6.0 mph NW9.7 kmh NW 11.0 mph17.7 kmh 24.98 in845.9 mb 0.00 in0.0 mm 0.00 in0.0 mm 0.00 in0.0 mm
07:03 PM 90.7°F32.6°C -5537.2°C - 9.0 mph NNW14.5 kmh NNW 26.6 mph42.8 kmh 24.98 in845.9 mb 0.00 in0.0 mm 0.00 in0.0 mm 0.00 in0.0 mm
07:08 PM 89.8°F32.1°C -5537.2°C - 14.0 mph NNW22.5 kmh NNW 23.7 mph38.1 kmh 24.98 in845.9 mb 0.00 in0.0 mm 0.00 in0.0 mm 0.00 in0.0 mm
07:13 PM 89.8°F32.1°C -5537.2°C - 16.0 mph N25.7 kmh N 24.4 mph39.3 kmh 24.98 in845.9 mb 0.00 in0.0 mm 0.00 in0.0 mm 0.00 in0.0 mm
07:18 PM 89.6°F32.0°C -5537.2°C - 13.0 mph N20.9 kmh N 18.1 mph29.1 kmh 24.98 in845.9 mb 0.00 in0.0 mm 0.00 in0.0 mm 0.00 in0.0 mm
07:23 PM 89.4°F31.9°C -5537.2°C - 13.0 mph N20.9 kmh N 18.1 mph29.1 kmh 24.98 in845.9 mb 0.00 in0.0 mm 0.00 in0.0 mm 0.00 in0.0 mm
07:28 PM 89.4°F31.9°C -5537.2°C - 13.0 mph N20.9 kmh N 17.2 mph27.7 kmh 24.98 in845.9 mb 0.00 in0.0 mm 0.00 in0.0 mm 0.00 in0.0 mm
07:33 PM 89.6°F32.0°C -5537.2°C - 13.0 mph N20.9 kmh N 19.9 mph32.0 kmh 24.98 in845.9 mb 0.00 in0.0 mm 0.00 in0.0 mm 0.00 in0.0 mm
07:38 PM 89.4°F31.9°C -5537.2°C - 14.0 mph N22.5 kmh N 21.5 mph34.6 kmh 24.98 in845.9 mb 0.00 in0.0 mm 0.00 in0.0 mm 0.00 in0.0 mm
07:43 PM 89.2°F31.8°C -5537.2°C - 12.0 mph N19.3 kmh N 16.3 mph26.2 kmh 24.98 in845.9 mb 0.00 in0.0 mm 0.00 in0.0 mm 0.00 in0.0 mm
07:48 PM 88.9°F31.6°C -5537.2°C - 10.0 mph N16.1 kmh N 12.5 mph20.1 kmh 24.98 in845.9 mb 0.00 in0.0 mm 0.00 in0.0 mm 0.00 in0.0 mm
07:53 PM 88.9°F31.6°C -5537.2°C - 8.0 mph N12.9 kmh N 12.5 mph20.1 kmh 24.98 in845.9 mb 0.00 in0.0 mm 0.00 in0.0 mm 0.00 in0.0 mm
07:58 PM 88.9°F31.6°C -5537.2°C - 7.0 mph N11.3 kmh N 12.1 mph19.5 kmh 24.98 in845.9 mb 0.00 in0.0 mm 0.00 in0.0 mm 0.00 in0.0 mm
08:03 PM 88.7°F31.5°C -5537.2°C - 5.0 mph N8.0 kmh N 7.4 mph11.9 kmh 25.01 in846.9 mb 0.00 in0.0 mm 0.00 in0.0 mm 0.00 in0.0 mm
08:08 PM 87.3°F30.7°C -5537.2°C - 6.0 mph E9.7 kmh E 18.6 mph29.9 kmh 25.01 in846.9 mb 0.00 in0.0 mm 0.00 in0.0 mm 0.00 in0.0 mm
08:13 PM 85.6°F29.8°C -5537.2°C - 10.0 mph S16.1 kmh S 16.3 mph26.2 kmh 25.01 in846.9 mb 0.00 in0.0 mm 0.00 in0.0 mm 0.00 in0.0 mm
08:18 PM 84.9°F29.4°C -5537.2°C - 9.0 mph S14.5 kmh S 10.1 mph16.3 kmh 25.01 in846.9 mb 0.00 in0.0 mm 0.00 in0.0 mm 0.00 in0.0 mm
08:23 PM 84.4°F29.1°C -5537.2°C - 5.0 mph SSE8.0 kmh SSE 6.3 mph10.1 kmh 25.01 in846.9 mb 0.00 in0.0 mm 0.00 in0.0 mm 0.00 in0.0 mm
08:28 PM 84.2°F29.0°C -5537.2°C - 4.0 mph SE6.4 kmh SE 5.8 mph9.3 kmh 25.01 in846.9 mb 0.00 in0.0 mm 0.00 in0.0 mm 0.00 in0.0 mm
08:33 PM 83.7°F28.7°C -5537.2°C - 4.0 mph SE6.4 kmh SE 6.3 mph10.1 kmh 25.01 in846.9 mb 0.00 in0.0 mm 0.00 in0.0 mm 0.00 in0.0 mm
08:38 PM 82.9°F28.3°C -5537.2°C - 4.0 mph SSE6.4 kmh SSE 5.4 mph8.7 kmh 25.01 in846.9 mb 0.00 in0.0 mm 0.00 in0.0 mm 0.00 in0.0 mm
08:43 PM 82.9°F28.3°C -5537.2°C - 3.0 mph S4.8 kmh S 4.0 mph6.4 kmh 25.01 in846.9 mb 0.00 in0.0 mm 0.00 in0.0 mm 0.00 in0.0 mm
08:48 PM 82.9°F28.3°C -5537.2°C - 2.0 mph S3.2 kmh S 3.6 mph5.8 kmh 25.01 in846.9 mb 0.00 in0.0 mm 0.00 in0.0 mm 0.00 in0.0 mm
08:53 PM 82.9°F28.3°C -5537.2°C - 1.0 mph S1.6 kmh S 4.0 mph6.4 kmh 25.01 in846.9 mb 0.00 in0.0 mm 0.00 in0.0 mm 0.00 in0.0 mm
08:58 PM 82.6°F28.1°C -5537.2°C - 1.0 mph S1.6 kmh S 2.7 mph4.3 kmh 25.01 in846.9 mb 0.00 in0.0 mm 0.00 in0.0 mm 0.00 in0.0 mm
09:03 PM 82.0°F27.8°C -5537.2°C - 1.0 mph S1.6 kmh S 3.6 mph5.8 kmh 25.01 in846.9 mb 0.00 in0.0 mm 0.00 in0.0 mm 0.00 in0.0 mm
09:08 PM 81.0°F27.2°C -5537.2°C - 2.0 mph SSE3.2 kmh SSE 5.8 mph9.3 kmh 25.01 in846.9 mb 0.00 in0.0 mm 0.00 in0.0 mm 0.00 in0.0 mm
09:13 PM 80.4°F26.9°C -5537.2°C - 1.0 mph SE1.6 kmh SE 4.0 mph6.4 kmh 25.01 in846.9 mb 0.00 in0.0 mm 0.00 in0.0 mm 0.00 in0.0 mm
09:18 PM 80.6°F27.0°C -5537.2°C - 1.0 mph SE1.6 kmh SE 4.5 mph7.2 kmh 25.04 in848.0 mb 0.00 in0.0 mm 0.00 in0.0 mm 0.00 in0.0 mm
09:23 PM 80.1°F26.7°C -5537.2°C - 2.0 mph SE3.2 kmh SE 4.9 mph7.9 kmh 25.04 in848.0 mb 0.00 in0.0 mm 0.00 in0.0 mm 0.00 in0.0 mm
09:28 PM 79.7°F26.5°C -5537.2°C - 2.0 mph SE3.2 kmh SE 4.5 mph7.2 kmh 25.04 in848.0 mb 0.00 in0.0 mm 0.00 in0.0 mm 0.00 in0.0 mm
09:33 PM 79.3°F26.3°C -5537.2°C - 3.0 mph E4.8 kmh E 7.4 mph11.9 kmh 25.01 in846.9 mb 0.00 in0.0 mm 0.00 in0.0 mm 0.00 in0.0 mm
09:38 PM 79.2°F26.2°C -5537.2°C - 5.0 mph NNE8.0 kmh NNE 6.7 mph10.8 kmh 25.01 in846.9 mb 0.00 in0.0 mm 0.00 in0.0 mm 0.00 in0.0 mm
09:43 PM 79.3°F26.3°C -5537.2°C - 4.0 mph NNE6.4 kmh NNE 5.8 mph9.3 kmh 25.01 in846.9 mb 0.00 in0.0 mm 0.00 in0.0 mm 0.00 in0.0 mm
09:48 PM 79.2°F26.2°C -5537.2°C - 4.0 mph NNE6.4 kmh NNE 5.8 mph9.3 kmh 25.04 in848.0 mb 0.00 in0.0 mm 0.00 in0.0 mm 0.00 in0.0 mm
09:53 PM 79.0°F26.1°C -5537.2°C - 3.0 mph NE4.8 kmh NE 6.3 mph10.1 kmh 25.04 in848.0 mb 0.00 in0.0 mm 0.00 in0.0 mm 0.00 in0.0 mm
09:58 PM 79.7°F26.5°C -5537.2°C - 3.0 mph NE4.8 kmh NE 6.7 mph10.8 kmh 25.04 in848.0 mb 0.00 in0.0 mm 0.00 in0.0 mm 0.00 in0.0 mm
10:03 PM 80.1°F26.7°C -5537.2°C - 4.0 mph NE6.4 kmh NE 8.3 mph13.4 kmh 25.04 in848.0 mb 0.00 in0.0 mm 0.00 in0.0 mm 0.00 in0.0 mm
10:08 PM 81.7°F27.6°C -5537.2°C - 5.0 mph NNE8.0 kmh NNE 11.0 mph17.7 kmh 25.04 in848.0 mb 0.00 in0.0 mm 0.00 in0.0 mm 0.00 in0.0 mm
10:13 PM 82.4°F28.0°C -5537.2°C - 7.0 mph NNE11.3 kmh NNE 12.1 mph19.5 kmh 25.04 in848.0 mb 0.00 in0.0 mm 0.00 in0.0 mm 0.00 in0.0 mm
10:18 PM 83.5°F28.6°C -5537.2°C - 8.0 mph NNE12.9 kmh NNE 16.8 mph27.0 kmh 25.04 in848.0 mb 0.00 in0.0 mm 0.00 in0.0 mm 0.00 in0.0 mm
10:23 PM 84.0°F28.9°C -5537.2°C - 10.0 mph NNE16.1 kmh NNE 19.0 mph30.6 kmh 25.04 in848.0 mb 0.00 in0.0 mm 0.00 in0.0 mm 0.00 in0.0 mm
10:28 PM 83.8°F28.8°C -5537.2°C - 10.0 mph NNE16.1 kmh NNE 15.9 mph25.6 kmh 25.04 in848.0 mb 0.00 in0.0 mm 0.00 in0.0 mm 0.00 in0.0 mm
10:33 PM 83.5°F28.6°C -5537.2°C - 10.0 mph NNE16.1 kmh NNE 15.4 mph24.8 kmh 25.04 in848.0 mb 0.00 in0.0 mm 0.00 in0.0 mm 0.00 in0.0 mm
10:38 PM 83.7°F28.7°C -5537.2°C - 9.0 mph NNE14.5 kmh NNE 17.2 mph27.7 kmh 25.04 in848.0 mb 0.00 in0.0 mm 0.00 in0.0 mm 0.00 in0.0 mm
10:43 PM 83.5°F28.6°C -5537.2°C - 8.0 mph NNE12.9 kmh NNE 12.5 mph20.1 kmh 25.04 in848.0 mb 0.00 in0.0 mm 0.00 in0.0 mm 0.00 in0.0 mm
10:48 PM 83.1°F28.4°C -5537.2°C - 6.0 mph NNE9.7 kmh NNE 10.5 mph16.9 kmh 25.04 in848.0 mb 0.00 in0.0 mm 0.00 in0.0 mm 0.00 in0.0 mm
10:53 PM 82.6°F28.1°C -5537.2°C - 5.0 mph NE8.0 kmh NE 9.6 mph15.4 kmh 25.04 in848.0 mb 0.00 in0.0 mm 0.00 in0.0 mm 0.00 in0.0 mm
10:58 PM 82.2°F27.9°C -5537.2°C - 4.0 mph NE6.4 kmh NE 6.9 mph11.1 kmh 25.04 in848.0 mb 0.00 in0.0 mm 0.00 in0.0 mm 0.00 in0.0 mm
11:03 PM 82.4°F28.0°C -5537.2°C - 5.0 mph NE8.0 kmh NE 11.2 mph18.0 kmh 25.04 in848.0 mb 0.00 in0.0 mm 0.00 in0.0 mm 0.00 in0.0 mm
11:08 PM 82.6°F28.1°C -5537.2°C - 5.0 mph NE8.0 kmh NE 9.6 mph15.4 kmh 25.04 in848.0 mb 0.00 in0.0 mm 0.00 in0.0 mm 0.00 in0.0 mm
11:13 PM 81.9°F27.7°C -5537.2°C - 4.0 mph NE6.4 kmh NE 7.4 mph11.9 kmh 25.04 in848.0 mb 0.00 in0.0 mm 0.00 in0.0 mm 0.00 in0.0 mm
11:18 PM 81.5°F27.5°C -5537.2°C - 3.0 mph NE4.8 kmh NE 6.9 mph11.1 kmh 25.04 in848.0 mb 0.00 in0.0 mm 0.00 in0.0 mm 0.00 in0.0 mm
11:23 PM 82.4°F28.0°C -5537.2°C - 4.0 mph NNE6.4 kmh NNE 7.8 mph12.6 kmh 25.04 in848.0 mb 0.00 in0.0 mm 0.00 in0.0 mm 0.00 in0.0 mm
11:29 PM 82.9°F28.3°C -5537.2°C - 5.0 mph NE8.0 kmh NE 9.6 mph15.4 kmh 25.04 in848.0 mb 0.00 in0.0 mm 0.00 in0.0 mm 0.00 in0.0 mm
11:34 PM 83.3°F28.5°C -5537.2°C - 5.0 mph NE8.0 kmh NE 8.7 mph14.0 kmh 25.04 in848.0 mb 0.00 in0.0 mm 0.00 in0.0 mm 0.00 in0.0 mm
11:39 PM 83.1°F28.4°C -5537.2°C - 5.0 mph NE8.0 kmh NE 9.6 mph15.4 kmh 25.04 in848.0 mb 0.00 in0.0 mm 0.00 in0.0 mm 0.00 in0.0 mm
11:44 PM 83.1°F28.4°C -5537.2°C - 5.0 mph NE8.0 kmh NE 8.3 mph13.4 kmh 25.04 in848.0 mb 0.00 in0.0 mm 0.00 in0.0 mm 0.00 in0.0 mm
11:49 PM 83.1°F28.4°C -5537.2°C - 5.0 mph NE8.0 kmh NE 8.3 mph13.4 kmh 25.04 in848.0 mb 0.00 in0.0 mm 0.00 in0.0 mm 0.00 in0.0 mm
11:54 PM 82.9°F28.3°C -5537.2°C - 5.0 mph NNE8.0 kmh NNE 7.8 mph12.6 kmh 25.04 in848.0 mb 0.00 in0.0 mm 0.00 in0.0 mm 0.00 in0.0 mm
11:59 PM 81.5°F27.5°C -5537.2°C - 5.0 mph N8.0 kmh N 8.7 mph14.0 kmh 25.04 in848.0 mb 0.00 in0.0 mm 0.00 in0.0 mm 0.00 in0.0 mm